Time;durP1;ratioP1;P1;durP2;ratioP2;P2;SDS_P1;SDS_P2;PMS_P1;PMS_P2;Temp;Humidity;BMP_temperature;BMP_pressure;BME280_temperature;BME280_humidity;BME280_pressure;Samples;Min_cycle;Max_cycle;Signal;HPM_P1;HPM_P2
2022/05/10 04:07:26;;;;;;;;;17.00;17.00;;;;;20.24;54.12;101631.91;5074021;27;45516;-85
2022/05/10 04:09:52;;;;;;;;;16.00;15.50;;;;;20.39;53.93;101632.47;5083234;27;47243;-86
2022/05/10 04:12:17;;;;;;;;;15.00;15.00;;;;;20.63;54.13;101626.03;5089233;27;45457;-86
2022/05/10 04:14:43;;;;;;;;;17.25;17.00;;;;;20.92;53.30;101639.81;5079444;27;45422;-84
2022/05/10 04:17:08;;;;;;;;;16.50;14.75;;;;;21.23;53.12;101643.59;5080551;27;45515;-84
2022/05/10 04:19:34;;;;;;;;;14.00;14.00;;;;;21.50;52.64;101632.25;5077499;27;47029;-85
2022/05/10 04:21:59;;;;;;;;;16.75;15.25;;;;;21.82;52.61;101630.44;5090105;27;45615;-87
2022/05/10 04:24:24;;;;;;;;;15.50;14.50;;;;;22.11;51.98;101632.41;5073700;27;51192;-87
2022/05/10 04:26:50;;;;;;;;;17.50;17.50;;;;;22.40;51.78;101647.00;5078811;27;45755;-87
2022/05/10 04:29:16;;;;;;;;;16.00;15.25;;;;;22.64;51.28;101639.38;5085590;27;45521;-86
2022/05/10 04:31:42;;;;;;;;;14.25;14.25;;;;;22.85;51.20;101638.38;5081520;27;45702;-84
2022/05/10 04:34:07;;;;;;;;;17.50;14.50;;;;;23.06;50.48;101639.25;5082996;27;45657;-88
2022/05/10 04:36:33;;;;;;;;;11.25;11.25;;;;;23.25;50.27;101641.06;5082832;27;46925;-84
2022/05/10 04:38:58;;;;;;;;;17.25;15.00;;;;;23.44;49.97;101648.34;5087496;27;45676;-85
2022/05/10 04:41:26;;;;;;;;;16.00;16.00;;;;;23.60;49.88;101636.91;5079540;27;45789;-84
2022/05/10 04:43:58;;;;;;;;;16.75;16.75;;;;;23.76;49.52;101641.72;5080435;27;45529;-80
2022/05/10 04:46:30;;;;;;;;;15.50;14.00;;;;;23.91;48.70;101638.50;5086429;27;46153;-83
2022/05/10 04:48:55;;;;;;;;;13.75;13.75;;;;;24.01;49.03;101639.31;5072880;27;45471;-83
2022/05/10 04:51:21;;;;;;;;;13.75;13.75;;;;;24.13;48.83;101648.13;5072737;27;45492;-85
2022/05/10 04:53:47;;;;;;;;;22.25;20.25;;;;;24.24;47.96;101638.06;5084053;27;45490;-76
2022/05/10 04:56:12;;;;;;;;;24.75;22.75;;;;;24.25;46.40;101642.50;5084142;27;45722;-76
2022/05/10 04:58:38;;;;;;;;;25.50;25.50;;;;;24.21;45.87;101644.66;5081788;27;45560;-78
2022/05/10 05:01:08;;;;;;;;;28.00;25.00;;;;;24.19;45.84;101647.53;5085248;27;45968;-79
2022/05/10 05:03:34;;;;;;;;;27.00;25.50;;;;;24.21;45.46;101644.66;5080644;27;45480;-79
2022/05/10 05:06:01;;;;;;;;;19.00;14.50;;;;;24.19;47.22;101649.38;5088149;27;47260;-81
2022/05/10 05:08:26;;;;;;;;;22.75;22.75;;;;;24.15;45.84;101651.53;5077801;27;45340;-81
2022/05/10 05:10:54;;;;;;;;;24.75;22.50;;;;;24.15;45.60;101646.13;5072558;27;45409;-80
2022/05/10 05:13:19;;;;;;;;;24.75;24.00;;;;;24.15;45.09;101648.81;5080170;27;45560;-79
2022/05/10 05:15:44;;;;;;;;;25.75;23.25;;;;;24.14;44.71;101646.25;5076580;27;45415;-79
2022/05/10 05:18:10;;;;;;;;;25.50;24.25;;;;;24.12;44.89;101643.72;5065175;27;51033;-79
2022/05/10 05:20:38;;;;;;;;;23.75;23.50;;;;;24.11;44.72;101646.56;5062333;28;45805;-78
2022/05/10 05:23:08;;;;;;;;;23.25;22.50;;;;;24.11;44.60;101642.00;5062051;28;45373;-78
2022/05/10 05:25:37;;;;;;;;;26.75;24.00;;;;;24.13;44.50;101648.13;5067832;28;46089;-78
2022/05/10 05:28:04;;;;;;;;;23.50;20.00;;;;;24.13;44.45;101647.25;5074069;28;45423;-78
2022/05/10 05:30:29;;;;;;;;;25.75;24.50;;;;;24.12;44.54;101654.56;5061130;27;45344;-77
2022/05/10 05:32:55;;;;;;;;;29.25;27.25;;;;;24.13;43.98;101640.00;5064995;28;45528;-77
2022/05/10 05:35:20;;;;;;;;;21.25;21.25;;;;;24.11;44.26;101643.88;5066314;28;46100;-79
2022/05/10 05:37:46;;;;;;;;;20.25;20.25;;;;;24.11;44.52;101649.28;5073286;28;45780;-78
2022/05/10 05:40:14;;;;;;;;;24.00;22.75;;;;;24.11;44.50;101650.13;5073792;28;45411;-79
2022/05/10 05:42:40;;;;;;;;;19.25;19.25;;;;;24.16;44.48;101652.41;5059117;28;45487;-79
2022/05/10 05:45:08;;;;;;;;;24.00;24.00;;;;;24.21;44.47;101653.63;5071549;27;45477;-79
2022/05/10 05:47:34;;;;;;;;;22.67;22.00;;;;;24.29;44.61;101654.75;5063497;27;45445;-74
2022/05/10 05:49:59;;;;;;;;;21.00;21.00;;;;;24.37;44.66;101657.56;5058680;28;45423;-79
2022/05/10 05:52:26;;;;;;;;;23.67;23.00;;;;;24.45;44.89;101659.50;5061194;28;45696;-80
2022/05/10 05:54:53;;;;;;;;;24.00;20.67;;;;;24.55;44.76;101656.72;5061891;28;46064;-78
2022/05/10 05:57:19;;;;;;;;;22.33;21.33;;;;;24.64;44.20;101654.97;5073289;28;45681;-78
2022/05/10 05:59:45;;;;;;;;;22.00;22.00;;;;;24.74;44.38;101663.88;5059120;28;45529;-79
2022/05/10 06:02:14;;;;;;;;;27.33;27.33;;;;;24.81;44.66;101659.53;5061516;28;45333;-78
2022/05/10 06:04:40;;;;;;;;;21.67;21.67;;;;;24.88;43.90;101659.78;5071358;28;46274;-81
2022/05/10 06:07:05;;;;;;;;;18.00;18.00;;;;;24.95;44.00;101660.03;5066763;27;45403;-81
2022/05/10 06:09:31;;;;;;;;;26.00;25.00;;;;;25.01;43.97;101659.38;5055283;28;45323;-78
2022/05/10 06:11:56;;;;;;;;;23.00;22.33;;;;;25.08;43.95;101657.78;5070499;28;45414;-73
2022/05/10 06:14:22;;;;;;;;;22.00;19.67;;;;;25.13;43.96;101668.16;5067603;28;47068;-75
2022/05/10 06:16:47;;;;;;;;;24.67;21.67;;;;;25.17;43.92;101660.56;5069658;27;45456;-74
2022/05/10 06:19:13;;;;;;;;;19.33;18.67;;;;;25.20;43.88;101661.09;5070123;27;50702;-74
2022/05/10 06:21:41;;;;;;;;;22.67;20.67;;;;;25.25;43.83;101664.19;5068024;28;45443;-74
2022/05/10 06:24:07;;;;;;;;;21.00;21.00;;;;;25.31;44.20;101661.84;5060035;28;45440;-74
2022/05/10 06:26:32;;;;;;;;;18.33;17.67;;;;;25.35;44.04;101663.25;5061098;28;45591;-74
2022/05/10 06:28:57;;;;;;;;;21.33;21.33;;;;;25.41;43.73;101659.03;5065526;28;45828;-74
2022/05/10 06:31:23;;;;;;;;;21.00;21.00;;;;;25.46;43.76;101662.97;5066070;27;45508;-73
2022/05/10 06:33:48;;;;;;;;;19.67;19.00;;;;;25.49;43.53;101657.22;5071529;28;45462;-73
2022/05/10 06:36:13;;;;;;;;;19.33;19.33;;;;;25.54;43.75;101656.72;5060052;28;45467;-74
2022/05/10 06:38:40;;;;;;;;;19.00;18.67;;;;;25.55;43.73;101655.78;5070413;28;54214;-73
2022/05/10 06:41:06;;;;;;;;;19.00;19.00;;;;;25.55;43.71;101663.94;5064118;28;45469;-74
2022/05/10 06:43:36;;;;;;;;;19.33;18.67;;;;;25.56;43.67;101659.31;5068248;28;45540;-74
2022/05/10 06:46:13;;;;;;;;;22.00;20.33;;;;;25.57;43.27;101653.72;5070410;27;45360;-73
2022/05/10 06:48:39;;;;;;;;;20.00;20.00;;;;;25.57;43.36;101656.44;5068367;28;45841;-73
2022/05/10 06:51:06;;;;;;;;;23.00;22.00;;;;;25.58;43.56;101654.59;5060330;27;45485;-73
2022/05/10 06:53:32;;;;;;;;;23.33;20.33;;;;;25.60;43.29;101650.69;5060772;28;45727;-73
2022/05/10 06:55:58;;;;;;;;;21.33;21.00;;;;;25.64;43.88;101653.94;5060823;28;45352;-73
2022/05/10 06:58:23;;;;;;;;;22.00;21.00;;;;;25.66;43.51;101651.91;5065589;28;45573;-73
2022/05/10 07:00:49;;;;;;;;;19.67;19.67;;;;;25.70;43.69;101650.56;5053259;28;47135;-72
2022/05/10 07:03:16;;;;;;;;;21.00;19.00;;;;;25.72;43.60;101645.84;5053948;28;46131;-72
2022/05/10 07:05:44;;;;;;;;;21.67;20.67;;;;;25.76;43.45;101649.91;5066665;27;45806;-72
2022/05/10 07:08:10;;;;;;;;;21.67;18.00;;;;;25.80;43.88;101650.47;5064635;28;45461;-73
2022/05/10 07:10:36;;;;;;;;;18.00;17.00;;;;;25.82;43.55;101648.44;5060757;28;45557;-73
2022/05/10 07:13:01;;;;;;;;;22.67;21.00;;;;;25.87;43.89;101643.34;5058695;27;48181;-75
2022/05/10 07:15:27;;;;;;;;;20.33;20.33;;;;;25.89;43.60;101645.91;5066986;28;45402;-74
2022/05/10 07:17:52;;;;;;;;;23.33;20.00;;;;;25.90;43.60;101644.88;5058789;28;45490;-74
2022/05/10 07:20:19;;;;;;;;;22.00;20.67;;;;;25.94;43.99;101640.84;5060872;27;56259;-73
2022/05/10 07:22:45;;;;;;;;;19.00;19.00;;;;;25.98;43.72;101642.22;5060824;28;46134;-73
2022/05/10 07:25:14;;;;;;;;;19.67;17.67;;;;;26.01;43.83;101644.63;5054207;28;45581;-74
2022/05/10 07:27:40;;;;;;;;;19.67;19.67;;;;;26.07;43.47;101644.97;5069034;28;45676;-72
2022/05/10 07:30:07;;;;;;;;;20.67;20.67;;;;;26.10;43.81;101640.06;5063504;27;45679;-74
2022/05/10 07:32:33;;;;;;;;;18.00;18.00;;;;;26.11;43.80;101633.59;5057650;28;45523;-72
2022/05/10 07:35:01;;;;;;;;;19.00;18.67;;;;;26.13;43.15;101636.16;5059443;28;45475;-77
2022/05/10 07:37:27;;;;;;;;;21.67;19.00;;;;;26.14;43.85;101643.28;5058916;28;45834;-75
2022/05/10 07:39:53;;;;;;;;;21.67;21.33;;;;;26.11;43.31;101633.59;5061224;28;45941;-75
2022/05/10 07:42:18;;;;;;;;;22.00;20.33;;;;;26.13;43.57;101641.59;5065872;28;46383;-73
2022/05/10 07:44:43;;;;;;;;;18.33;18.00;;;;;26.13;43.37;101638.88;5066695;27;45544;-73
2022/05/10 07:47:09;;;;;;;;;20.00;19.67;;;;;26.16;43.87;101638.56;5064563;28;45609;-73
2022/05/10 07:49:34;;;;;;;;;21.67;18.33;;;;;26.16;43.71;101646.72;5068905;28;46732;-73
2022/05/10 07:52:00;;;;;;;;;18.00;18.00;;;;;26.18;43.50;101639.22;5061842;28;46106;-73
2022/05/10 07:54:25;;;;;;;;;20.00;18.67;;;;;26.20;43.92;101636.34;5052953;28;45324;-73
2022/05/10 07:56:50;;;;;;;;;17.00;16.67;;;;;26.21;43.25;101641.63;5066347;27;50429;-73
2022/05/10 07:59:16;;;;;;;;;16.67;14.67;;;;;26.24;43.90;101643.16;5064214;27;45431;-74
2022/05/10 08:01:41;;;;;;;;;20.00;20.00;;;;;26.24;43.86;101635.00;5071331;27;45454;-73
2022/05/10 08:04:08;;;;;;;;;20.67;18.67;;;;;26.26;43.65;101636.56;5055759;28;45415;-74
2022/05/10 08:06:33;;;;;;;;;18.67;18.67;;;;;26.27;43.95;101627.38;5062999;28;45573;-72
2022/05/10 08:08:58;;;;;;;;;18.00;18.00;;;;;26.30;43.83;101637.94;5069741;27;50063;-73
2022/05/10 08:11:24;;;;;;;;;18.00;18.00;;;;;26.32;43.69;101621.44;5064427;28;45986;-72
2022/05/10 08:13:49;;;;;;;;;19.33;16.33;;;;;26.34;44.03;101624.00;5065877;28;45293;-72
2022/05/10 08:16:14;;;;;;;;;16.67;16.67;;;;;26.35;43.69;101625.72;5058954;28;45901;-72
2022/05/10 08:18:41;;;;;;;;;20.00;19.67;;;;;26.38;43.68;101619.91;5068170;28;45520;-74
2022/05/10 08:21:08;;;;;;;;;18.67;17.33;;;;;26.41;43.89;101623.16;5072334;27;46472;-73
2022/05/10 08:23:38;;;;;;;;;19.00;18.00;;;;;26.41;43.80;101623.16;5065934;28;45588;-73
2022/05/10 08:26:05;;;;;;;;;20.00;18.33;;;;;26.41;43.43;101622.31;5054324;28;45534;-75
2022/05/10 08:28:34;;;;;;;;;21.33;19.33;;;;;26.39;43.38;101621.63;5058500;28;45508;-75
2022/05/10 08:31:04;;;;;;;;;19.00;18.00;;;;;26.38;43.94;101625.38;5060611;28;45512;-73
2022/05/10 08:33:32;;;;;;;;;19.00;18.67;;;;;26.39;43.71;101629.78;5054782;28;45620;-75
2022/05/10 08:35:59;;;;;;;;;20.00;20.00;;;;;26.41;43.91;101634.03;5066426;27;45463;-74
2022/05/10 08:38:26;;;;;;;;;20.00;18.67;;;;;26.43;43.77;101626.56;5061491;28;45487;-74
2022/05/10 08:41:01;;;;;;;;;19.33;19.33;;;;;26.46;43.74;101627.25;5053253;28;46671;-74
2022/05/10 08:43:50;;;;;;;;;17.67;16.33;;;;;26.48;43.37;101626.06;5053211;28;45399;-74
2022/05/10 08:46:21;;;;;;;;;17.00;17.00;;;;;26.49;43.87;101618.75;5067821;28;51790;-74
2022/05/10 08:48:53;;;;;;;;;21.67;19.67;;;;;26.50;43.72;101624.03;5053489;28;45894;-74
2022/05/10 08:51:18;;;;;;;;;15.67;15.67;;;;;26.50;43.42;101623.19;5067324;28;46299;-74
2022/05/10 08:53:43;;;;;;;;;20.00;18.33;;;;;26.52;44.06;101618.44;5070101;28;46133;-74
2022/05/10 08:56:19;;;;;;;;;18.00;18.00;;;;;26.52;43.90;101624.72;5064622;28;51064;-75
2022/05/10 08:58:50;;;;;;;;;16.00;14.67;;;;;26.54;43.98;101628.13;5062822;27;45417;-73
2022/05/10 09:01:21;;;;;;;;;21.00;20.33;;;;;26.54;42.18;101614.53;5069899;28;46400;-76
2022/05/10 09:03:55;;;;;;;;;18.33;17.33;;;;;26.59;41.03;101624.91;5056906;28;45499;-77
2022/05/10 09:06:44;;;;;;;;;15.67;15.00;;;;;26.61;40.61;101619.28;5071016;28;45608;-78
2022/05/10 09:09:29;;;;;;;;;18.67;18.67;;;;;26.59;40.62;101619.44;5061105;28;46023;-78
2022/05/10 09:12:12;;;;;;;;;17.67;17.67;;;;;26.60;40.83;101617.59;5060635;27;46201;-78
2022/05/10 09:14:47;;;;;;;;;17.67;16.33;;;;;26.60;41.00;101620.31;5060967;28;45447;-77
2022/05/10 09:17:16;;;;;;;;;18.67;17.00;;;;;26.59;40.45;101616.72;5061859;28;45354;-78
2022/05/10 09:19:43;;;;;;;;;16.00;13.00;;;;;26.60;40.78;101609.44;5060772;28;45399;-78
2022/05/10 09:22:25;;;;;;;;;20.00;18.67;;;;;26.60;40.85;101612.97;5059362;27;46131;-76
2022/05/10 09:24:58;;;;;;;;;20.00;20.00;;;;;26.60;40.24;101615.69;5063698;28;45557;-75
2022/05/10 09:27:32;;;;;;;;;20.67;19.33;;;;;26.62;40.24;101602.78;5071754;28;45534;-75
2022/05/10 09:29:59;;;;;;;;;15.33;15.33;;;;;26.62;40.18;101605.50;5074524;28;45625;-75
2022/05/10 09:35:25;;;;;;;;;19.33;19.33;;;;;26.57;40.21;101608.72;5061654;28;45525;-75
2022/05/10 09:38:09;;;;;;;;;20.33;20.33;;;;;26.52;40.34;101607.53;5069418;28;45337;-74
2022/05/10 09:40:48;;;;;;;;;20.67;19.67;;;;;26.47;40.68;101599.00;5061664;27;54074;-74
2022/05/10 09:43:25;;;;;;;;;18.33;15.33;;;;;26.43;40.17;101603.94;5064193;28;47305;-75
2022/05/10 09:46:25;;;;;;;;;19.67;18.33;;;;;26.43;40.65;101604.81;5066640;28;45643;-76
2022/05/10 09:48:51;;;;;;;;;20.00;20.00;;;;;26.43;40.41;101596.63;5063365;28;45495;-75
2022/05/10 09:51:25;;;;;;;;;21.33;19.33;;;;;26.44;40.42;101587.44;5059126;28;45423;-74
2022/05/10 09:53:53;;;;;;;;;19.67;19.67;;;;;26.46;40.17;101583.69;5067327;27;45509;-74
2022/05/10 09:56:21;;;;;;;;;18.67;18.67;;;;;26.42;40.57;101591.34;5057672;28;45910;-74
2022/05/10 09:59:25;;;;;;;;;19.33;19.33;;;;;26.38;40.13;101587.25;5070476;28;45519;-75
2022/05/10 10:01:55;;;;;;;;;22.33;21.00;;;;;26.36;40.47;101589.31;5060137;27;45481;-74
2022/05/10 10:04:26;;;;;;;;;18.67;18.67;;;;;26.34;40.70;101588.63;5071641;27;45525;-75
2022/05/10 10:07:13;;;;;;;;;17.67;17.67;;;;;26.31;40.23;101584.34;5071562;28;45754;-74
2022/05/10 10:09:41;;;;;;;;;18.67;17.33;;;;;26.30;40.71;101578.09;5056493;27;45373;-74
2022/05/10 10:12:31;;;;;;;;;19.33;16.00;;;;;26.30;40.68;101571.78;5056659;28;45757;-76
2022/05/10 10:14:57;;;;;;;;;18.67;18.67;;;;;26.28;39.92;101573.81;5065271;28;45555;-76
2022/05/10 10:17:30;;;;;;;;;18.00;18.00;;;;;26.29;40.54;101568.19;5064340;28;45490;-75
2022/05/10 10:20:01;;;;;;;;;18.33;17.67;;;;;26.30;40.56;101569.91;5069454;28;45607;-77
2022/05/10 10:22:41;;;;;;;;;17.00;17.00;;;;;26.35;39.96;101574.00;5072347;28;45551;-76
2022/05/10 10:25:31;;;;;;;;;18.00;17.00;;;;;26.33;40.03;101571.44;5058808;28;46176;-75
2022/05/10 10:28:04;;;;;;;;;21.00;18.33;;;;;26.31;40.37;101558.00;5056745;28;45725;-73
2022/05/10 10:30:37;;;;;;;;;20.67;20.33;;;;;26.34;40.29;101566.84;5055612;28;48412;-73
2022/05/10 10:33:34;;;;;;;;;16.00;16.00;;;;;26.33;40.82;101554.25;5072824;27;45695;-74
2022/05/10 10:36:23;;;;;;;;;16.67;16.67;;;;;26.36;40.48;101562.94;5063504;28;46026;-75
2022/05/10 10:39:29;;;;;;;;;19.33;16.00;;;;;26.39;40.86;101562.59;5062467;28;45452;-74
2022/05/10 10:41:54;;;;;;;;;20.00;18.00;;;;;26.43;40.20;101566.69;5028703;28;45500;-75
2022/05/10 10:44:31;;;;;;;;;15.67;15.67;;;;;26.48;41.14;101571.63;5022904;28;45774;-76
2022/05/10 10:47:11;;;;;;;;;16.67;16.67;;;;;26.55;41.30;101569.06;5020853;28;46041;-75
2022/05/10 10:49:44;;;;;;;;;14.67;14.00;;;;;26.61;41.31;101562.13;5028298;28;46006;-74
2022/05/10 10:52:10;;;;;;;;;17.67;17.00;;;;;26.65;40.94;101566.22;5027500;28;56804;-74
2022/05/10 10:54:36;;;;;;;;;17.00;17.00;;;;;26.68;40.98;101577.59;5026028;28;45519;-74
2022/05/10 10:57:14;;;;;;;;;16.00;16.00;;;;;26.73;41.43;101568.91;5027857;28;47040;-74
2022/05/10 10:59:54;;;;;;;;;19.00;16.00;;;;;26.78;41.57;101565.69;5035688;28;45702;-73
2022/05/10 11:02:38;;;;;;;;;14.67;14.67;;;;;26.81;41.09;101568.91;5025486;28;45579;-75
2022/05/10 11:05:41;;;;;;;;;16.00;16.00;;;;;26.86;41.44;101553.94;5029296;28;45583;-77
2022/05/10 11:08:18;;;;;;;;;16.33;16.33;;;;;26.90;41.53;101558.03;5033792;28;46144;-75
2022/05/10 11:11:11;;;;;;;;;16.67;16.00;;;;;26.93;41.09;101552.25;5034026;28;45466;-73
2022/05/10 11:13:39;;;;;;;;;16.33;14.00;;;;;26.97;41.53;101556.31;5008579;28;45593;-76
2022/05/10 11:16:23;;;;;;;;;19.00;18.33;;;;;27.05;40.41;101556.31;5028047;28;45730;-79
2022/05/10 11:19:07;;;;;;;;;21.00;18.67;;;;;27.10;40.39;101555.81;5051027;28;46982;-78
2022/05/10 11:21:59;;;;;;;;;20.33;18.33;;;;;27.12;40.02;101544.72;5054956;28;45636;-76
2022/05/10 11:24:43;;;;;;;;;22.33;19.67;;;;;27.17;39.37;101545.91;5062758;28;45480;-81
2022/05/10 11:27:27;;;;;;;;;20.33;18.67;;;;;27.17;39.99;101550.50;5074644;27;45443;-78
2022/05/10 11:30:08;;;;;;;;;15.00;15.00;;;;;27.16;40.00;101541.50;5071356;27;46452;-79
2022/05/10 11:33:01;;;;;;;;;17.00;17.00;;;;;27.13;39.80;101538.28;5068999;28;45591;-78
2022/05/10 11:35:32;;;;;;;;;19.00;19.00;;;;;27.14;39.33;101531.78;5057491;28;45736;-76
2022/05/10 11:38:07;;;;;;;;;20.33;19.67;;;;;27.14;39.35;101520.91;5070050;28;48516;-76
2022/05/10 11:40:33;;;;;;;;;19.00;16.00;;;;;27.14;39.61;101516.28;5067719;28;46124;-76
2022/05/10 11:43:02;;;;;;;;;17.33;16.33;;;;;27.13;39.87;101500.97;5056174;28;45433;-74
2022/05/10 11:45:56;;;;;;;;;20.67;16.67;;;;;27.11;39.41;101516.66;5059769;28;45510;-74
2022/05/10 11:48:40;;;;;;;;;19.33;19.33;;;;;27.07;39.81;101509.84;5055987;28;45506;-74
2022/05/10 11:54:20;;;;;;;;;17.33;16.00;;;;;27.05;40.08;101507.28;5060209;28;45439;-74
2022/05/10 11:56:49;;;;;;;;;16.33;16.33;;;;;27.03;40.25;101516.66;5067046;28;45893;-74
2022/05/10 11:59:21;;;;;;;;;19.00;17.67;;;;;27.03;40.41;101501.16;5060146;28;45711;-74
2022/05/10 12:01:48;;;;;;;;;18.00;18.00;;;;;27.06;40.96;101521.78;5065566;28;50941;-73
2022/05/10 12:04:32;;;;;;;;;18.67;18.67;;;;;27.07;40.73;101507.97;5058039;28;45538;-72
2022/05/10 12:07:20;;;;;;;;;17.00;16.33;;;;;27.11;40.55;101505.75;5070980;28;45848;-73
2022/05/10 12:09:52;;;;;;;;;15.00;15.00;;;;;27.13;41.26;101500.97;5064447;28;50883;-73
2022/05/10 12:12:46;;;;;;;;;15.33;15.33;;;;;27.17;41.21;101502.31;5058987;28;46115;-73
2022/05/10 12:21:21;;;;;;;;;15.33;15.00;;;;;27.23;41.04;101498.88;5042838;28;45718;-74
2022/05/10 12:24:12;;;;;;;;;15.67;15.00;;;;;27.27;41.12;101487.63;5045649;28;45603;-75
2022/05/10 12:26:44;;;;;;;;;16.00;15.33;;;;;27.27;41.57;101480.31;5040152;28;45571;-75
2022/05/10 12:29:40;;;;;;;;;16.67;14.33;;;;;27.29;41.25;101480.13;5048715;28;45575;-74
2022/05/10 12:32:17;;;;;;;;;14.67;14.67;;;;;27.31;41.45;101472.63;5044600;28;45504;-75
2022/05/10 12:34:49;;;;;;;;;14.33;14.33;;;;;27.32;42.02;101460.69;5043504;28;45337;-74
2022/05/10 12:37:27;;;;;;;;;16.00;16.00;;;;;27.35;42.36;101468.53;5033713;28;45615;-75
2022/05/10 12:39:56;;;;;;;;;15.00;13.67;;;;;27.36;42.22;101457.47;5046049;28;45844;-73
2022/05/10 12:42:33;;;;;;;;;16.67;15.00;;;;;27.41;41.83;101456.06;5019275;28;45635;-74
2022/05/10 12:45:09;;;;;;;;;14.00;13.33;;;;;27.41;42.50;101446.00;5049108;28;45486;-73
2022/05/10 12:47:57;;;;;;;;;13.67;13.33;;;;;27.45;42.35;101444.63;5045300;28;45386;-75
2022/05/10 12:50:52;;;;;;;;;16.00;14.00;;;;;27.46;42.73;101446.31;5046581;28;46191;-73
2022/05/10 12:53:23;;;;;;;;;15.33;14.67;;;;;27.48;42.22;101452.47;5068023;28;45741;-73
2022/05/10 12:55:51;;;;;;;;;16.00;16.00;;;;;27.49;42.26;101439.66;5063587;27;45457;-73
2022/05/10 12:58:25;;;;;;;;;14.67;13.67;;;;;27.51;42.80;101432.19;5064689;28;45458;-73
2022/05/10 13:00:57;;;;;;;;;13.33;13.33;;;;;27.54;42.86;101430.97;5073165;28;45452;-75
2022/05/10 13:03:35;;;;;;;;;15.33;14.67;;;;;27.57;43.13;101427.84;5066360;28;45509;-74
2022/05/10 13:06:10;;;;;;;;;13.33;13.33;;;;;27.59;42.56;101434.00;5064143;28;46253;-75
2022/05/10 13:08:51;;;;;;;;;15.67;15.00;;;;;27.59;43.16;101434.00;5070259;28;45386;-74
2022/05/10 13:11:21;;;;;;;;;11.00;11.00;;;;;27.61;40.95;101423.78;5071386;28;45390;-74
2022/05/10 13:13:49;;;;;;;;;14.00;13.00;;;;;27.59;40.39;101423.94;5067473;28;45918;-76
2022/05/10 13:16:17;;;;;;;;;13.67;13.33;;;;;27.59;40.04;101428.53;5074320;28;45498;-74
2022/05/10 13:18:46;;;;;;;;;15.67;14.00;;;;;27.60;40.15;101414.78;5057369;28;45449;-74
2022/05/10 13:21:12;;;;;;;;;15.67;13.33;;;;;27.59;39.63;101423.09;5068331;27;45518;-74
2022/05/10 13:23:39;;;;;;;;;13.33;13.33;;;;;27.53;40.07;101419.19;5054822;28;45409;-76
2022/05/10 13:26:06;;;;;;;;;16.00;14.67;;;;;27.49;40.17;101406.94;5066244;28;46182;-73
2022/05/10 13:28:33;;;;;;;;;13.33;12.67;;;;;27.46;40.92;101408.16;5066411;27;45430;-73
2022/05/10 13:31:01;;;;;;;;;15.67;14.33;;;;;27.47;40.74;101409.03;5070096;28;45493;-73
2022/05/10 13:33:30;;;;;;;;;16.00;15.67;;;;;27.46;41.22;101399.97;5070933;28;45787;-72
2022/05/10 13:36:02;;;;;;;;;14.67;14.67;;;;;27.47;41.35;101392.66;5073523;28;46178;-72
2022/05/10 13:38:37;;;;;;;;;12.67;12.67;;;;;27.48;40.61;101389.75;5066011;28;46459;-72
2022/05/10 13:41:10;;;;;;;;;12.67;12.67;;;;;27.50;40.69;101381.38;5068477;28;45704;-74
2022/05/10 13:43:38;;;;;;;;;14.33;14.33;;;;;27.55;40.83;101389.88;5062202;28;45549;-73
2022/05/10 13:46:29;;;;;;;;;12.33;12.33;;;;;27.59;40.91;101384.91;5058797;28;46228;-74
2022/05/10 13:48:58;;;;;;;;;12.67;12.67;;;;;27.62;41.21;101381.84;5058447;28;45584;-73
2022/05/10 13:51:33;;;;;;;;;14.00;13.33;;;;;27.65;41.15;101386.09;5062619;28;45546;-73
2022/05/10 13:54:23;;;;;;;;;12.67;12.33;;;;;27.65;41.45;101376.03;5063733;28;45625;-73
2022/05/10 13:56:50;;;;;;;;;10.33;10.33;;;;;27.68;41.00;101375.69;5065061;28;47281;-73
2022/05/10 13:59:28;;;;;;;;;12.00;12.00;;;;;27.69;41.13;101371.06;5060635;28;51696;-73
2022/05/10 14:01:54;;;;;;;;;10.00;10.00;;;;;27.68;41.72;101372.09;5062222;28;45546;-74
2022/05/10 14:04:20;;;;;;;;;16.00;13.33;;;;;27.68;41.13;101374.84;5067652;28;45875;-72
2022/05/10 14:06:56;;;;;;;;;15.00;13.67;;;;;27.68;41.28;101364.78;5070267;27;46299;-73
2022/05/10 14:09:24;;;;;;;;;12.33;11.67;;;;;27.68;42.03;101366.66;5066612;28;45410;-73
2022/05/10 14:11:51;;;;;;;;;12.33;12.33;;;;;27.70;41.78;101361.84;5059804;28;45512;-74
2022/05/10 14:14:17;;;;;;;;;14.00;14.00;;;;;27.76;40.48;101366.59;5068162;28;45440;-74
2022/05/10 14:16:44;;;;;;;;;12.67;12.00;;;;;27.77;40.19;101356.50;5063834;28;47067;-76
2022/05/10 14:19:37;;;;;;;;;15.00;12.67;;;;;27.74;40.42;101355.88;5063600;28;45420;-74
2022/05/10 14:22:13;;;;;;;;;14.33;13.00;;;;;27.69;40.28;101350.09;5058383;28;45515;-74
2022/05/10 14:24:39;;;;;;;;;13.67;12.00;;;;;27.68;40.78;101353.00;5064088;28;45367;-74
2022/05/10 14:27:30;;;;;;;;;14.00;14.00;;;;;27.66;41.02;101353.19;5066974;27;46954;-74
2022/05/10 14:29:58;;;;;;;;;13.33;13.33;;;;;27.65;41.09;101346.03;5056068;28;45794;-77
2022/05/10 14:32:24;;;;;;;;;14.00;14.00;;;;;27.65;40.51;101340.59;5065774;28;45422;-76
2022/05/10 14:35:08;;;;;;;;;13.67;11.00;;;;;27.61;41.15;101336.53;5066322;28;45753;-77
2022/05/10 14:37:49;;;;;;;;;16.00;14.33;;;;;27.62;40.59;101332.75;5056090;28;46111;-78
2022/05/10 14:40:21;;;;;;;;;13.67;13.67;;;;;27.60;40.95;101319.34;5071687;28;45557;-78
2022/05/10 14:43:14;;;;;;;;;14.33;13.67;;;;;27.61;40.79;101328.34;5068064;28;45368;-77
2022/05/10 14:45:48;;;;;;;;;11.33;11.33;;;;;27.60;40.89;101322.06;5070027;28;45435;-76
2022/05/10 14:48:28;;;;;;;;;12.00;12.00;;;;;27.63;41.51;101315.41;5056793;27;48415;-73
2022/05/10 14:51:02;;;;;;;;;14.33;13.00;;;;;27.64;41.06;101316.22;5066418;28;49014;-73
2022/05/10 14:53:31;;;;;;;;;13.00;12.00;;;;;27.64;40.85;101316.22;5063323;28;45418;-73
2022/05/10 14:56:00;;;;;;;;;12.33;12.00;;;;;27.62;40.89;101314.53;5061172;28;45562;-73
2022/05/10 14:58:31;;;;;;;;;12.33;12.33;;;;;27.64;41.05;101310.78;5063653;28;46169;-73
2022/05/10 15:01:04;;;;;;;;;12.00;12.00;;;;;27.65;41.46;101321.50;5059175;28;45728;-74
2022/05/10 15:03:30;;;;;;;;;11.33;11.33;;;;;27.66;40.87;101306.84;5059910;28;45613;-74
2022/05/10 15:05:56;;;;;;;;;13.00;13.00;;;;;27.68;40.78;101310.25;5053817;28;45686;-74
2022/05/10 15:08:26;;;;;;;;;13.00;13.00;;;;;27.69;40.86;101303.75;5060746;28;46126;-75
2022/05/10 15:10:55;;;;;;;;;15.00;15.00;;;;;27.72;40.79;101297.91;5062067;28;52914;-74
2022/05/10 15:13:21;;;;;;;;;11.00;11.00;;;;;27.71;40.77;101289.94;5067244;27;45487;-74
2022/05/10 15:15:56;;;;;;;;;12.00;12.00;;;;;27.69;40.96;101298.31;5062915;28;45561;-73
2022/05/10 15:21:24;;;;;;;;;12.33;12.33;;;;;27.70;41.42;101291.81;5062217;28;45371;-76
2022/05/10 15:23:50;;;;;;;;;10.67;10.67;;;;;27.69;41.81;101297.44;5064908;27;45535;-74
2022/05/10 15:26:19;;;;;;;;;15.00;13.00;;;;;27.67;41.62;101286.72;5068692;27;45398;-74
2022/05/10 15:28:47;;;;;;;;;12.00;12.00;;;;;27.68;41.16;101282.13;5068376;28;45467;-75
2022/05/10 15:31:12;;;;;;;;;13.67;11.00;;;;;27.69;41.33;101281.06;5071184;28;45336;-74
2022/05/10 15:33:38;;;;;;;;;13.33;12.00;;;;;27.68;41.46;101277.53;5068595;28;45428;-75
2022/05/10 15:36:06;;;;;;;;;11.00;11.00;;;;;27.71;41.42;101271.69;5057843;28;45629;-74
2022/05/10 15:38:32;;;;;;;;;10.00;10.00;;;;;27.73;41.85;101269.63;5067953;28;47187;-74
2022/05/10 15:40:57;;;;;;;;;10.67;10.00;;;;;27.75;41.43;101266.72;5067415;28;45726;-73
2022/05/10 15:43:23;;;;;;;;;11.00;11.00;;;;;27.75;41.38;101264.84;5061711;28;45463;-73
2022/05/10 15:45:48;;;;;;;;;10.00;10.00;;;;;27.74;41.92;101265.88;5070124;28;45539;-73
2022/05/10 15:48:19;;;;;;;;;10.33;10.33;;;;;27.73;41.92;101253.28;5069999;27;46975;-75
2022/05/10 15:50:45;;;;;;;;;14.33;13.67;;;;;27.74;39.87;101252.22;5063406;28;46251;-76